Time;durP1;ratioP1;P1;durP2;ratioP2;P2;SDS_P1;SDS_P2;PMS_P1;PMS_P2;Temp;Humidity;BMP_temperature;BMP_pressure;BME280_temperature;BME280_humidity;BME280_pressure;Samples;Min_cycle;Max_cycle;Signal;HPM_P1;HPM_P2
2021/06/02 00:02:03;;;;;;;6.95;3.80;;;14.10;99.90;;;;;;6155359;23;20057;-82
2021/06/02 00:04:32;;;;;;;5.68;3.33;;;14.20;99.90;;;;;;6179884;23;20415;-81
2021/06/02 00:07:02;;;;;;;5.07;3.47;;;14.00;99.90;;;;;;6164382;23;20090;-81
2021/06/02 00:09:31;;;;;;;5.13;3.17;;;14.00;99.90;;;;;;6165470;23;20497;-82
2021/06/02 00:12:02;;;;;;;6.03;3.40;;;13.90;99.90;;;;;;6154163;23;20009;-82
2021/06/02 00:14:29;;;;;;;4.70;3.13;;;13.90;99.90;;;;;;6191069;23;20036;-82
2021/06/02 00:16:57;;;;;;;5.75;3.20;;;13.80;99.90;;;;;;6155178;23;20024;-82
2021/06/02 00:19:24;;;;;;;6.68;3.47;;;13.80;99.90;;;;;;6154325;23;20021;-82
2021/06/02 00:21:52;;;;;;;7.13;3.20;;;13.70;99.90;;;;;;6165150;23;20020;-82
2021/06/02 00:24:18;;;;;;;6.55;3.08;;;13.80;99.90;;;;;;6192064;23;20013;-82
2021/06/02 00:26:44;;;;;;;3.40;2.50;;;13.70;99.90;;;;;;6130720;23;20043;-81
2021/06/02 00:29:12;;;;;;;5.53;2.83;;;13.70;99.90;;;;;;6164349;23;20452;-82
2021/06/02 00:31:39;;;;;;;5.88;2.90;;;13.70;99.90;;;;;;6154022;23;20020;-82
2021/06/02 00:34:06;;;;;;;4.15;2.85;;;13.60;99.90;;;;;;6129025;23;20009;-82
2021/06/02 00:36:32;;;;;;;5.78;3.00;;;13.60;99.90;;;;;;6153712;23;20017;-82
2021/06/02 00:39:00;;;;;;;6.68;2.95;;;13.60;99.90;;;;;;6164723;23;20374;-81
2021/06/02 00:41:28;;;;;;;5.28;3.00;;;13.50;99.90;;;;;;6181418;23;20493;-82
2021/06/02 00:43:55;;;;;;;4.82;2.70;;;13.50;99.90;;;;;;6164264;23;20456;-82
2021/06/02 00:46:22;;;;;;;5.07;2.95;;;13.40;99.90;;;;;;6153870;23;20027;-82
2021/06/02 00:48:48;;;;;;;3.65;3.05;;;13.40;99.90;;;;;;6185577;23;20445;-82
2021/06/02 00:51:17;;;;;;;3.45;2.40;;;13.40;99.90;;;;;;6153945;23;20013;-82
2021/06/02 00:53:46;;;;;;;4.50;2.90;;;13.40;99.90;;;;;;6154913;23;20009;-82
2021/06/02 00:56:13;;;;;;;6.05;2.95;;;13.30;99.90;;;;;;6190105;23;20059;-82
2021/06/02 00:58:50;;;;;;;3.75;2.90;;;13.20;99.90;;;;;;6155136;23;20439;-82
2021/06/02 01:01:16;;;;;;;6.47;3.25;;;13.20;99.90;;;;;;6183284;23;20082;-82
2021/06/02 01:03:43;;;;;;;7.75;3.28;;;13.10;99.90;;;;;;6157533;23;20024;-81
2021/06/02 01:06:09;;;;;;;5.65;3.30;;;13.20;99.90;;;;;;6156133;23;20082;-81
2021/06/02 01:08:37;;;;;;;6.60;3.33;;;13.10;99.90;;;;;;6165351;23;20081;-82
2021/06/02 01:11:03;;;;;;;4.43;3.20;;;13.20;99.90;;;;;;6190733;23;20278;-82
2021/06/02 01:13:32;;;;;;;5.72;3.35;;;13.10;99.90;;;;;;6155229;23;20021;-82
2021/06/02 01:15:58;;;;;;;7.13;3.30;;;13.00;99.90;;;;;;6154639;23;20016;-81
2021/06/02 01:18:23;;;;;;;5.47;3.38;;;13.00;99.90;;;;;;6153416;23;20369;-81
2021/06/02 01:20:49;;;;;;;4.75;3.47;;;12.90;99.90;;;;;;6192534;23;20024;-81
2021/06/02 01:23:16;;;;;;;5.07;3.38;;;13.00;99.90;;;;;;6191120;23;20035;-81
2021/06/02 01:25:45;;;;;;;4.72;3.70;;;13.00;99.90;;;;;;6130091;23;20349;-81
2021/06/02 01:28:11;;;;;;;6.07;3.50;;;13.00;99.90;;;;;;6155670;23;20457;-81
2021/06/02 01:30:37;;;;;;;7.95;3.97;;;13.00;99.90;;;;;;6154520;23;20012;-81
2021/06/02 01:33:15;;;;;;;4.10;3.70;;;12.90;99.90;;;;;;6163220;23;20013;-81
2021/06/02 01:36:02;;;;;;;5.93;4.13;;;12.90;99.90;;;;;;6155205;23;20065;-81
2021/06/02 01:38:49;;;;;;;6.85;3.95;;;13.00;99.90;;;;;;6183405;23;20012;-81
2021/06/02 01:41:23;;;;;;;5.53;4.68;;;12.90;99.90;;;;;;6155248;23;20013;-79
2021/06/02 01:44:17;;;;;;;7.90;4.20;;;12.90;99.90;;;;;;6192151;23;20017;-79
2021/06/02 01:47:20;;;;;;;5.00;4.07;;;12.90;99.90;;;;;;6164933;23;20017;-79
2021/06/02 01:50:09;;;;;;;7.82;4.35;;;12.90;99.90;;;;;;6180866;23;20445;-79
2021/06/02 01:52:47;;;;;;;5.90;4.00;;;12.90;99.90;;;;;;6154839;23;20374;-79
2021/06/02 01:55:58;;;;;;;5.50;4.50;;;12.90;99.90;;;;;;6188978;23;20021;-80
2021/06/02 01:58:48;;;;;;;5.57;4.20;;;12.90;99.90;;;;;;6191052;23;20020;-80
2021/06/02 02:01:34;;;;;;;6.43;4.00;;;12.90;99.90;;;;;;6154758;23;20092;-79
2021/06/02 02:03:59;;;;;;;7.15;4.82;;;12.90;99.90;;;;;;6154247;23;20017;-80
2021/06/02 02:06:55;;;;;;;6.30;4.75;;;12.90;99.90;;;;;;6181106;23;20139;-80
2021/06/02 02:09:29;;;;;;;;;;;12.90;99.90;;;;;;6154119;23;20020;-79
2021/06/02 02:12:25;;;;;;;5.70;4.70;;;13.00;99.90;;;;;;6154592;23;19941;-80
2021/06/02 02:15:20;;;;;;;6.88;4.78;;;13.00;99.90;;;;;;6180824;23;20334;-80
2021/06/02 02:18:02;;;;;;;8.30;5.10;;;12.90;99.90;;;;;;6189473;23;20009;-80
2021/06/02 02:20:39;;;;;;;6.30;4.90;;;13.00;99.90;;;;;;6154383;23;20013;-80
2021/06/02 02:23:26;;;;;;;9.75;4.70;;;12.90;99.90;;;;;;6130157;23;20020;-80
2021/06/02 02:26:17;;;;;;;13.60;5.50;;;13.00;99.90;;;;;;6188544;23;20388;-80
2021/06/02 02:28:54;;;;;;;7.70;5.57;;;13.00;99.90;;;;;;6155804;23;20021;-80
2021/06/02 02:31:50;;;;;;;7.07;5.07;;;13.00;99.90;;;;;;6155835;23;20097;-80
2021/06/02 02:34:44;;;;;;;11.50;5.78;;;13.00;99.90;;;;;;6155350;23;20341;-79
2021/06/02 02:37:45;;;;;;;8.98;6.20;;;13.00;99.90;;;;;;6059698;23;20444;-80
2021/06/02 02:40:58;;;;;;;6.32;5.68;;;13.00;99.90;;;;;;6034185;23;20029;-80
2021/06/02 02:44:05;;;;;;;8.25;6.00;;;13.00;99.90;;;;;;5953526;24;20020;-80
2021/06/02 02:47:08;;;;;;;6.65;5.60;;;13.00;99.90;;;;;;5924067;24;20538;-80
2021/06/02 02:49:52;;;;;;;9.75;6.05;;;13.10;99.90;;;;;;5923731;24;20076;-80
2021/06/02 02:52:24;;;;;;;11.65;6.70;;;13.10;99.90;;;;;;5900926;24;20028;-80
2021/06/02 02:54:57;;;;;;;12.05;6.95;;;13.10;99.90;;;;;;5926804;24;20036;-80
2021/06/02 02:57:59;;;;;;;11.05;6.90;;;13.20;99.90;;;;;;5901265;24;20421;-79
2021/06/02 03:00:40;;;;;;;10.68;7.57;;;13.10;99.90;;;;;;5900174;24;20041;-80
2021/06/02 03:03:15;;;;;;;14.55;7.60;;;13.10;99.90;;;;;;5922135;24;20132;-80
2021/06/02 03:06:20;;;;;;;12.18;8.02;;;13.10;99.90;;;;;;5922646;24;20097;-80
2021/06/02 03:09:23;;;;;;;11.33;7.57;;;13.20;99.90;;;;;;5922278;24;20016;-80
2021/06/02 03:12:07;;;;;;;11.35;8.10;;;13.20;99.90;;;;;;5922095;24;20255;-80
2021/06/02 03:14:59;;;;;;;11.75;8.25;;;13.20;99.90;;;;;;5976726;23;20030;-80
2021/06/02 03:17:32;;;;;;;9.30;8.15;;;13.20;99.90;;;;;;6012589;23;20042;-80
2021/06/02 03:20:19;;;;;;;10.10;8.45;;;13.20;99.90;;;;;;6015052;23;20094;-80
2021/06/02 03:23:22;;;;;;;11.85;9.05;;;13.30;99.90;;;;;;6128855;23;20020;-80
2021/06/02 03:25:57;;;;;;;12.27;8.82;;;13.30;99.90;;;;;;6181744;23;20099;-80
2021/06/02 03:28:26;;;;;;;15.68;9.40;;;13.30;99.90;;;;;;6166152;23;20013;-80
2021/06/02 03:31:06;;;;;;;12.93;9.52;;;13.30;99.90;;;;;;6181728;23;20373;-80
2021/06/02 03:34:03;;;;;;;10.65;8.60;;;13.30;99.90;;;;;;6162676;23;20009;-80
2021/06/02 03:36:54;;;;;;;13.60;9.77;;;13.40;99.90;;;;;;6192005;23;20044;-80
2021/06/02 03:39:38;;;;;;;13.38;9.45;;;13.40;99.90;;;;;;6156510;23;20488;-80
2021/06/02 03:42:22;;;;;;;15.77;10.18;;;13.50;99.90;;;;;;6165776;23;20021;-80
2021/06/02 03:44:59;;;;;;;11.40;9.63;;;13.50;99.90;;;;;;6164831;23;20467;-80
2021/06/02 03:47:37;;;;;;;14.05;10.05;;;13.60;99.90;;;;;;6184007;23;20453;-80
2021/06/02 03:50:18;;;;;;;16.17;10.02;;;13.60;99.90;;;;;;6156805;23;20011;-80
2021/06/02 03:53:15;;;;;;;15.20;9.90;;;13.70;99.90;;;;;;6191384;23;20091;-80
2021/06/02 03:56:05;;;;;;;14.05;10.00;;;13.70;99.90;;;;;;6132651;23;20068;-80
2021/06/02 03:58:46;;;;;;;15.30;10.38;;;13.70;99.90;;;;;;6165847;23;20024;-80
2021/06/02 04:01:47;;;;;;;14.75;10.85;;;13.70;99.90;;;;;;6183667;23;20084;-80
2021/06/02 04:04:40;;;;;;;15.30;10.15;;;13.80;99.90;;;;;;6120926;23;20120;-80
2021/06/02 04:07:12;;;;;;;13.45;9.80;;;13.90;99.90;;;;;;6183940;23;20017;-80
2021/06/02 04:09:59;;;;;;;11.77;9.85;;;14.00;99.90;;;;;;6193453;23;20013;-80
2021/06/02 04:12:45;;;;;;;16.67;10.20;;;14.10;99.90;;;;;;6182347;23;20041;-80
2021/06/02 04:15:13;;;;;;;12.65;10.15;;;14.20;99.90;;;;;;6182450;23;20449;-80
2021/06/02 04:17:45;;;;;;;12.60;9.63;;;14.30;99.90;;;;;;6182906;23;20020;-80
2021/06/02 04:20:12;;;;;;;14.85;9.98;;;14.30;99.90;;;;;;6156800;23;20014;-80
2021/06/02 04:22:41;;;;;;;16.42;10.20;;;14.40;99.90;;;;;;6156560;23;20426;-80
2021/06/02 04:25:08;;;;;;;11.43;9.63;;;14.50;99.90;;;;;;6190912;23;20023;-80
2021/06/02 04:27:38;;;;;;;14.55;9.75;;;14.50;99.90;;;;;;6155852;23;20505;-80
2021/06/02 04:30:07;;;;;;;14.30;9.57;;;14.90;99.90;;;;;;6181307;23;20016;-80
2021/06/02 04:32:41;;;;;;;15.00;9.60;;;15.60;99.90;;;;;;6154875;23;20076;-80
2021/06/02 04:35:11;;;;;;;15.32;9.38;;;16.30;99.90;;;;;;6130795;23;20017;-80
2021/06/02 04:37:37;;;;;;;12.77;8.68;;;16.80;99.90;;;;;;6191840;23;20509;-80
2021/06/02 04:40:06;;;;;;;13.60;8.77;;;17.30;99.90;;;;;;6191780;23;20044;-80
2021/06/02 04:42:36;;;;;;;11.23;8.32;;;17.50;99.90;;;;;;6180253;23;20428;-80
2021/06/02 04:45:05;;;;;;;14.10;8.18;;;17.70;99.90;;;;;;6189305;23;20020;-80
2021/06/02 04:47:33;;;;;;;16.05;8.02;;;17.60;99.90;;;;;;6181233;23;20084;-79
2021/06/02 04:50:09;;;;;;;17.60;8.85;;;17.70;99.90;;;;;;6183515;23;20009;-79
2021/06/02 04:52:53;;;;;;;11.35;8.45;;;17.70;99.90;;;;;;6152977;23;20013;-79
2021/06/02 04:55:51;;;;;;;15.68;8.10;;;17.10;99.90;;;;;;6183863;23;20021;-79
2021/06/02 04:58:36;;;;;;;14.35;8.60;;;16.50;99.90;;;;;;6155277;23;20171;-79
2021/06/02 05:01:20;;;;;;;13.43;8.38;;;16.10;99.90;;;;;;6155593;23;20048;-80
2021/06/02 05:04:04;;;;;;;11.85;7.88;;;15.90;99.90;;;;;;6183613;23;20457;-80
2021/06/02 05:06:49;;;;;;;8.45;7.13;;;15.70;99.90;;;;;;6165739;23;20021;-79
2021/06/02 05:09:39;;;;;;;9.20;6.53;;;15.60;99.90;;;;;;6153634;23;20461;-79
2021/06/02 05:12:23;;;;;;;9.70;7.53;;;15.70;99.90;;;;;;6155698;23;20071;-79
2021/06/02 05:15:26;;;;;;;12.93;7.10;;;15.60;99.90;;;;;;6155227;23;20021;-79
2021/06/02 05:18:15;;;;;;;8.98;7.10;;;15.60;99.90;;;;;;6155817;23;20017;-80
2021/06/02 05:24:02;;;;;;;10.88;7.28;;;15.90;99.90;;;;;;6181750;23;20023;-79
2021/06/02 05:27:03;;;;;;;9.75;7.05;;;16.00;99.90;;;;;;6192073;23;20013;-80
2021/06/02 05:29:51;;;;;;;11.88;7.68;;;16.00;99.90;;;;;;6122601;23;20353;-79
2021/06/02 05:32:23;;;;;;;12.75;7.03;;;16.00;99.90;;;;;;6131818;23;20043;-80
2021/06/02 05:35:23;;;;;;;11.48;7.10;;;15.80;99.90;;;;;;6155395;23;20020;-80
2021/06/02 05:38:13;;;;;;;13.23;7.30;;;15.70;99.90;;;;;;6155985;23;20013;-80
2021/06/02 05:41:08;;;;;;;10.43;7.18;;;15.70;99.90;;;;;;6165454;23;20009;-78
2021/06/02 05:43:55;;;;;;;11.77;7.53;;;15.70;99.90;;;;;;6158605;23;20128;-77
2021/06/02 05:46:48;;;;;;;10.65;7.97;;;15.60;99.90;;;;;;6179643;23;20017;-78
2021/06/02 05:49:41;;;;;;;9.90;7.10;;;15.70;99.90;;;;;;6185811;23;20020;-79
2021/06/02 05:52:35;;;;;;;15.02;7.88;;;15.80;99.90;;;;;;6129244;23;20017;-78
2021/06/02 05:55:14;;;;;;;16.83;7.63;;;16.00;99.90;;;;;;6181813;23;20127;-79
2021/06/02 05:57:52;;;;;;;12.77;8.40;;;16.10;99.90;;;;;;6191675;23;20071;-80
2021/06/02 06:01:16;;;;;;;15.55;8.85;;;16.20;99.90;;;;;;6180181;23;20023;-76
2021/06/02 06:04:10;;;;;;;18.67;8.35;;;16.30;99.90;;;;;;6031712;23;20023;-77
2021/06/02 06:07:00;;;;;;;13.48;8.88;;;16.30;99.90;;;;;;5922408;24;20047;-79
2021/06/02 06:09:44;;;;;;;15.50;8.38;;;16.30;99.90;;;;;;5921394;24;20399;-80
2021/06/02 06:12:21;;;;;;;14.32;9.10;;;16.20;99.90;;;;;;5922567;24;20097;-78
2021/06/02 06:14:52;;;;;;;13.23;8.40;;;16.20;99.90;;;;;;5921957;24;20507;-81
2021/06/02 06:17:42;;;;;;;20.52;9.18;;;16.20;99.90;;;;;;5922313;24;20053;-78
2021/06/02 06:20:19;;;;;;;13.50;8.88;;;16.20;99.90;;;;;;5903639;24;20025;-78
2021/06/02 06:23:22;;;;;;;14.68;8.88;;;16.40;99.90;;;;;;5934154;24;20021;-79
2021/06/02 06:26:00;;;;;;;20.50;8.98;;;16.50;99.90;;;;;;5924805;24;20049;-79
2021/06/02 06:28:36;;;;;;;12.48;9.20;;;16.70;99.90;;;;;;5911698;24;20027;-79
2021/06/02 06:31:09;;;;;;;13.55;9.05;;;16.80;99.90;;;;;;5901747;24;20342;-79
2021/06/02 06:33:47;;;;;;;13.68;7.75;;;17.00;99.90;;;;;;5923825;24;20021;-79
2021/06/02 06:36:16;;;;;;;10.70;8.05;;;17.10;99.90;;;;;;5922439;24;20041;-77
2021/06/02 06:39:00;;;;;;;11.27;7.72;;;17.30;99.90;;;;;;5937002;24;20020;-78
2021/06/02 06:41:28;;;;;;;14.57;7.60;;;17.50;99.90;;;;;;6020041;23;20023;-80
2021/06/02 06:43:56;;;;;;;14.55;7.65;;;17.70;99.90;;;;;;6098391;23;20016;-79
2021/06/02 06:46:23;;;;;;;13.45;7.28;;;17.70;99.90;;;;;;6156184;23;20013;-81
2021/06/02 06:48:51;;;;;;;19.38;6.53;;;17.90;99.90;;;;;;6192092;23;20418;-79
2021/06/02 06:51:20;;;;;;;11.20;6.55;;;18.20;99.90;;;;;;6184359;23;20017;-80
2021/06/02 06:53:48;;;;;;;9.38;6.95;;;18.20;99.90;;;;;;6167140;23;20330;-80
2021/06/02 06:56:16;;;;;;;8.52;6.85;;;18.20;99.90;;;;;;6157564;23;20021;-79
2021/06/02 06:58:45;;;;;;;11.77;6.65;;;18.30;99.90;;;;;;6182847;23;20013;-80
2021/06/02 07:01:14;;;;;;;11.70;6.85;;;18.30;99.90;;;;;;6150877;23;20138;-79
2021/06/02 07:03:41;;;;;;;10.40;6.93;;;18.30;99.90;;;;;;6154902;23;20009;-80
2021/06/02 07:06:08;;;;;;;13.02;6.78;;;18.30;99.90;;;;;;6155336;23;20013;-81
2021/06/02 07:08:34;;;;;;;10.80;6.55;;;18.30;99.90;;;;;;6178825;23;20022;-80
2021/06/02 07:11:00;;;;;;;12.77;7.35;;;18.30;99.90;;;;;;6153347;23;20021;-80
2021/06/02 07:13:27;;;;;;;8.85;6.32;;;18.20;99.90;;;;;;6152833;23;20346;-81
2021/06/02 07:16:01;;;;;;;9.52;6.78;;;18.30;99.90;;;;;;6152051;23;20025;-80
2021/06/02 07:18:31;;;;;;;13.00;6.90;;;18.30;99.90;;;;;;6188479;23;20013;-80
2021/06/02 07:21:00;;;;;;;10.55;5.63;;;18.40;99.90;;;;;;6154028;23;20021;-80
2021/06/02 07:23:27;;;;;;;9.55;6.13;;;18.50;99.90;;;;;;6165904;23;20010;-80
2021/06/02 07:25:53;;;;;;;14.50;6.00;;;18.50;99.90;;;;;;6152707;23;20017;-80
2021/06/02 07:28:35;;;;;;;8.30;5.93;;;18.50;99.90;;;;;;6177170;23;20458;-80
2021/06/02 07:31:01;;;;;;;13.30;5.63;;;18.50;99.90;;;;;;6177265;23;20079;-80
2021/06/02 07:33:27;;;;;;;9.45;5.75;;;18.60;99.90;;;;;;6179036;23;20335;-80
2021/06/02 07:35:54;;;;;;;10.88;5.95;;;18.60;99.90;;;;;;6155120;23;20101;-81
2021/06/02 07:38:19;;;;;;;10.80;6.10;;;18.60;99.90;;;;;;6178796;23;20049;-81
2021/06/02 07:40:45;;;;;;;10.73;6.10;;;18.70;99.90;;;;;;6176964;23;20032;-81
2021/06/02 07:43:11;;;;;;;14.50;6.50;;;18.60;99.90;;;;;;6155311;23;20068;-82
2021/06/02 07:45:37;;;;;;;13.18;6.90;;;18.50;99.90;;;;;;6187187;23;20009;-79
2021/06/02 07:48:03;;;;;;;13.15;6.20;;;18.50;99.90;;;;;;6178525;23;20030;-81
2021/06/02 07:50:29;;;;;;;9.20;5.60;;;18.40;99.90;;;;;;6158222;23;20423;-81
2021/06/02 07:52:54;;;;;;;7.70;5.63;;;18.40;99.40;;;;;;6152226;23;20013;-80
2021/06/02 07:55:20;;;;;;;10.65;6.28;;;18.40;98.90;;;;;;6178530;23;20525;-80
2021/06/02 07:57:47;;;;;;;14.77;5.95;;;18.50;98.80;;;;;;6153149;23;20024;-80
2021/06/02 08:00:13;;;;;;;10.63;4.45;;;18.60;98.80;;;;;;6151624;23;20413;-77
2021/06/02 08:02:39;;;;;;;9.25;5.25;;;18.80;99.00;;;;;;6152760;23;20100;-78
2021/06/02 08:05:06;;;;;;;10.88;5.47;;;18.90;98.20;;;;;;6151276;23;20052;-76
2021/06/02 08:07:33;;;;;;;11.10;4.70;;;19.00;97.30;;;;;;6149894;23;20013;-76
2021/06/02 08:09:58;;;;;;;5.45;4.47;;;19.30;97.70;;;;;;6152532;23;20335;-77
2021/06/02 08:12:24;;;;;;;7.72;4.40;;;19.40;98.20;;;;;;6161731;23;20131;-78
2021/06/02 08:14:50;;;;;;;9.85;4.68;;;19.60;98.10;;;;;;6186914;23;20032;-78
2021/06/02 08:17:16;;;;;;;7.88;4.95;;;19.70;97.20;;;;;;6174386;23;20010;-78
2021/06/02 08:19:41;;;;;;;8.93;4.25;;;19.50;96.70;;;;;;6148985;23;20442;-78
2021/06/02 08:22:07;;;;;;;9.57;3.65;;;19.40;96.30;;;;;;6174549;23;20018;-77
2021/06/02 08:24:40;;;;;;;12.55;4.53;;;19.40;97.90;;;;;;6174869;23;20013;-76
2021/06/02 08:27:09;;;;;;;15.05;4.47;;;19.30;97.60;;;;;;6161345;23;20052;-75
2021/06/02 08:29:35;;;;;;;13.25;4.43;;;19.40;97.20;;;;;;6173511;23;20017;-76
2021/06/02 08:32:01;;;;;;;8.30;4.55;;;19.40;96.60;;;;;;6173885;23;20488;-76
2021/06/02 08:34:27;;;;;;;10.68;4.72;;;19.30;97.10;;;;;;6149474;23;20096;-76
2021/06/02 08:36:53;;;;;;;6.93;4.60;;;19.30;97.20;;;;;;6175155;23;20328;-76
2021/06/02 08:39:19;;;;;;;7.00;4.30;;;19.30;97.70;;;;;;6160897;23;20092;-77
2021/06/02 08:41:45;;;;;;;7.03;3.72;;;19.30;96.10;;;;;;6161958;23;20088;-77
2021/06/02 08:44:11;;;;;;;6.95;3.30;;;19.50;97.10;;;;;;6160061;23;20018;-77
2021/06/02 08:46:37;;;;;;;6.72;4.18;;;19.60;97.80;;;;;;6172974;23;20029;-77
2021/06/02 08:49:04;;;;;;;10.80;4.20;;;19.50;97.00;;;;;;6162290;23;20010;-77
2021/06/02 08:51:33;;;;;;;9.38;4.00;;;19.70;97.30;;;;;;6173823;23;20050;-77
2021/06/02 08:53:59;;;;;;;4.60;3.67;;;19.90;96.00;;;;;;6123906;23;20014;-77
2021/06/02 08:56:25;;;;;;;5.00;3.70;;;19.90;95.80;;;;;;6160288;23;20020;-76
2021/06/02 08:58:51;;;;;;;11.70;4.18;;;19.90;96.50;;;;;;6160865;23;20018;-76
2021/06/02 09:01:18;;;;;;;12.77;4.38;;;20.00;95.70;;;;;;6175038;23;20021;-76
2021/06/02 09:03:43;;;;;;;8.38;4.20;;;20.00;95.50;;;;;;6153095;23;20017;-76
2021/06/02 09:06:10;;;;;;;13.52;4.65;;;19.90;94.90;;;;;;6153541;23;20021;-77
2021/06/02 09:08:39;;;;;;;11.55;4.60;;;19.90;95.80;;;;;;6192016;23;20009;-78
2021/06/02 09:11:18;;;;;;;7.47;4.15;;;19.90;96.50;;;;;;6156894;23;20020;-75
2021/06/02 09:13:45;;;;;;;33.78;7.65;;;20.10;96.20;;;;;;6182674;23;20460;-78
2021/06/02 09:16:31;;;;;;;8.23;3.15;;;20.10;93.00;;;;;;6191350;23;20016;-77
2021/06/02 09:19:02;;;;;;;11.88;3.72;;;20.20;91.50;;;;;;6181085;23;20095;-76
2021/06/02 09:21:30;;;;;;;5.90;3.22;;;20.20;91.90;;;;;;6183145;23;20009;-78
2021/06/02 09:23:56;;;;;;;3.67;2.30;;;20.20;91.80;;;;;;6157241;23;20017;-78
2021/06/02 09:26:30;;;;;;;9.30;2.70;;;20.30;90.50;;;;;;6193314;23;20013;-77
2021/06/02 09:29:00;;;;;;;9.38;2.30;;;20.60;90.60;;;;;;6184305;23;20373;-78
2021/06/02 09:31:31;;;;;;;3.80;2.60;;;21.00;90.20;;;;;;6193059;23;20016;-79
2021/06/02 09:34:00;;;;;;;11.07;3.15;;;21.30;88.90;;;;;;6157248;23;20598;-78
2021/06/02 09:36:31;;;;;;;5.07;2.63;;;21.50;85.70;;;;;;6183915;23;20052;-76
2021/06/02 09:39:09;;;;;;;18.60;4.88;;;21.60;85.60;;;;;;6157845;23;20021;-77
2021/06/02 09:42:03;;;;;;;7.47;2.95;;;21.80;87.10;;;;;;6155369;23;20373;-77
2021/06/02 09:45:07;;;;;;;5.28;2.90;;;21.70;87.50;;;;;;6182984;23;20434;-76
2021/06/02 09:47:45;;;;;;;6.60;2.67;;;21.90;88.90;;;;;;6193502;23;20016;-78
2021/06/02 09:50:20;;;;;;;5.50;3.05;;;21.90;83.70;;;;;;6189900;23;20087;-76
2021/06/02 09:52:52;;;;;;;7.00;3.60;;;21.90;84.20;;;;;;6193261;23;20020;-77
2021/06/02 09:55:25;;;;;;;5.05;3.60;;;21.70;87.60;;;;;;6157339;23;20029;-77
2021/06/02 09:58:09;;;;;;;20.05;4.43;;;21.70;88.40;;;;;;6193787;23;20016;-78
2021/06/02 10:00:44;;;;;;;6.85;3.70;;;22.00;90.40;;;;;;6182637;23;20082;-78
2021/06/02 10:03:18;;;;;;;4.72;3.30;;;21.90;90.10;;;;;;6190023;23;20334;-76
2021/06/02 10:05:49;;;;;;;8.18;3.20;;;22.10;89.40;;;;;;6156606;23;20013;-78
2021/06/02 10:08:32;;;;;;;5.38;3.47;;;22.60;88.30;;;;;;6183924;23;20370;-76
2021/06/02 10:11:11;;;;;;;4.78;3.17;;;22.50;86.40;;;;;;6192825;23;20009;-79
2021/06/02 10:13:38;;;;;;;4.18;3.22;;;22.30;86.10;;;;;;6155769;23;20040;-77
2021/06/02 10:16:04;;;;;;;7.38;3.10;;;22.60;88.20;;;;;;6182436;23;20027;-76
2021/06/02 10:18:45;;;;;;;8.15;3.53;;;22.80;86.30;;;;;;6152654;23;20051;-76
2021/06/02 10:21:14;;;;;;;9.18;3.78;;;22.60;85.90;;;;;;6183614;23;20040;-77
2021/06/02 10:23:45;;;;;;;7.10;3.70;;;22.60;87.30;;;;;;6180451;23;20017;-79
2021/06/02 10:26:15;;;;;;;7.70;3.70;;;22.60;87.50;;;;;;6164759;23;20016;-75
2021/06/02 10:28:43;;;;;;;7.85;3.65;;;22.80;87.00;;;;;;6183510;23;20021;-77
2021/06/02 10:31:11;;;;;;;10.63;3.42;;;23.10;86.90;;;;;;6155190;23;20236;-76
2021/06/02 10:33:37;;;;;;;5.05;3.30;;;23.60;84.60;;;;;;6156521;23;20013;-76
2021/06/02 10:36:05;;;;;;;8.52;3.63;;;23.90;83.60;;;;;;6180541;23;20024;-79
2021/06/02 10:38:39;;;;;;;5.97;3.13;;;23.60;81.30;;;;;;6181743;23;20009;-76
2021/06/02 10:41:07;;;;;;;8.55;3.20;;;23.60;82.50;;;;;;6179680;23;20025;-78
2021/06/02 10:43:44;;;;;;;5.80;3.20;;;24.10;84.50;;;;;;6165978;23;20013;-80
2021/06/02 10:46:16;;;;;;;5.82;3.33;;;24.50;81.00;;;;;;6153117;23;20120;-78
2021/06/02 10:48:48;;;;;;;7.88;3.40;;;25.00;78.90;;;;;;6152027;23;20048;-79
2021/06/02 10:51:44;;;;;;;10.55;3.20;;;25.00;77.40;;;;;;6152357;23;20021;-79
2021/06/02 10:54:21;;;;;;;8.35;3.50;;;24.90;77.50;;;;;;6062547;23;20022;-79
2021/06/02 10:57:02;;;;;;;4.45;3.17;;;24.90;76.20;;;;;;6015192;23;20015;-78
2021/06/02 10:59:29;;;;;;;6.90;3.55;;;24.90;74.50;;;;;;6061169;23;20099;-79
2021/06/02 11:02:09;;;;;;;9.43;3.67;;;25.00;76.90;;;;;;6039294;23;20558;-79
2021/06/02 11:04:56;;;;;;;6.38;3.50;;;25.30;75.50;;;;;;6063779;23;20083;-79
2021/06/02 11:07:26;;;;;;;6.03;3.13;;;25.90;75.90;;;;;;6025321;23;20567;-79
2021/06/02 11:09:57;;;;;;;10.32;3.75;;;26.10;75.60;;;;;;6040136;23;20015;-79
2021/06/02 11:12:50;;;;;;;9.88;3.63;;;25.40;72.70;;;;;;6064497;23;20711;-79
2021/06/02 11:15:30;;;;;;;6.18;3.40;;;25.60;73.40;;;;;;6064394;23;20109;-77
2021/06/02 11:18:17;;;;;;;6.88;3.30;;;25.50;72.60;;;;;;6063151;23;20440;-78
2021/06/02 11:20:47;;;;;;;9.05;3.40;;;25.30;73.50;;;;;;6068257;23;20440;-78
2021/06/02 11:23:15;;;;;;;5.53;3.45;;;25.40;74.20;;;;;;6039583;23;20022;-78
2021/06/02 11:25:41;;;;;;;8.05;3.85;;;25.00;72.30;;;;;;6040084;23;20115;-78
2021/06/02 11:28:28;;;;;;;7.05;3.40;;;24.60;73.50;;;;;;6074873;23;20085;-78
2021/06/02 11:31:26;;;;;;;4.95;3.20;;;24.70;74.60;;;;;;6110563;23;20096;-78
2021/06/02 11:34:12;;;;;;;4.85;3.22;;;24.30;74.60;;;;;;6155143;23;20373;-80
2021/06/02 11:37:02;;;;;;;8.75;3.15;;;24.40;75.40;;;;;;6153513;23;20009;-81
2021/06/02 11:39:27;;;;;;;5.53;3.33;;;24.30;74.00;;;;;;6126380;23;20143;-81
2021/06/02 11:41:58;;;;;;;8.23;3.80;;;24.70;74.20;;;;;;6183744;23;20014;-80
2021/06/02 11:44:26;;;;;;;5.47;3.70;;;24.70;74.50;;;;;;6175005;23;20029;-81
2021/06/02 11:46:52;;;;;;;6.55;4.03;;;25.00;73.00;;;;;;6150088;23;20017;-80
2021/06/02 11:49:31;;;;;;;6.70;4.43;;;25.20;72.10;;;;;;6149324;23;20071;-81
2021/06/02 11:52:10;;;;;;;6.78;3.83;;;25.20;70.30;;;;;;6177671;23;20024;-79
2021/06/02 11:54:55;;;;;;;4.30;3.33;;;25.20;69.10;;;;;;6152164;23;20021;-85
2021/06/02 11:57:26;;;;;;;5.13;3.78;;;25.30;69.50;;;;;;6176788;23;20017;-82
2021/06/02 11:59:52;;;;;;;7.32;3.53;;;25.40;70.00;;;;;;6164332;23;20434;-82
2021/06/02 12:02:18;;;;;;;6.38;3.88;;;25.50;68.90;;;;;;6157304;23;20108;-80
2021/06/02 12:04:44;;;;;;;8.88;3.67;;;25.30;67.80;;;;;;6155656;23;20055;-82
2021/06/02 12:07:21;;;;;;;7.72;2.67;;;25.50;70.30;;;;;;6156311;23;20034;-84
2021/06/02 12:09:55;;;;;;;6.85;3.60;;;26.00;72.40;;;;;;6158081;23;20016;-81
2021/06/02 12:12:25;;;;;;;4.78;3.30;;;25.80;66.70;;;;;;6194149;23;20388;-81
2021/06/02 12:14:55;;;;;;;6.70;3.53;;;25.90;66.20;;;;;;6158048;23;20926;-82
2021/06/02 12:17:29;;;;;;;9.90;3.15;;;26.30;67.80;;;;;;6192279;23;20019;-82
2021/06/02 12:19:58;;;;;;;10.38;3.22;;;26.50;66.40;;;;;;6191553;23;20684;-83
2021/06/02 12:22:25;;;;;;;4.53;3.05;;;26.70;68.30;;;;;;6156183;23;20017;-82
2021/06/02 12:25:21;;;;;;;6.45;3.58;;;26.90;67.10;;;;;;6156148;23;20027;-82
2021/06/02 12:27:57;;;;;;;6.38;3.72;;;26.70;64.30;;;;;;6039711;23;20047;-82
2021/06/02 12:30:30;;;;;;;6.57;3.20;;;26.60;63.50;;;;;;6046058;23;20124;-84
2021/06/02 12:32:59;;;;;;;5.10;3.23;;;26.50;64.80;;;;;;6037053;23;20475;-83
2021/06/02 12:35:39;;;;;;;4.40;3.20;;;26.50;65.20;;;;;;6012897;23;20041;-81
2021/06/02 12:38:14;;;;;;;3.92;3.10;;;26.70;65.80;;;;;;6067895;23;20031;-83
2021/06/02 12:41:00;;;;;;;6.00;3.13;;;27.10;64.20;;;;;;6037730;23;20019;-83
2021/06/02 12:43:36;;;;;;;9.45;3.08;;;27.40;64.60;;;;;;5954328;24;20024;-82
2021/06/02 12:46:13;;;;;;;9.07;2.88;;;26.90;63.10;;;;;;5977190;24;20452;-85
2021/06/02 12:48:41;;;;;;;9.32;3.25;;;27.10;62.10;;;;;;5975741;24;20099;-81
2021/06/02 12:51:11;;;;;;;8.65;2.95;;;27.10;62.80;;;;;;5976769;24;20347;-80
2021/06/02 12:53:42;;;;;;;5.40;3.00;;;27.00;61.50;;;;;;5975766;24;20020;-85
2021/06/02 12:56:09;;;;;;;4.55;2.97;;;26.60;61.40;;;;;;5975403;24;20028;-83
2021/06/02 12:58:36;;;;;;;8.20;2.67;;;26.90;62.20;;;;;;5976925;24;20807;-80
2021/06/02 13:01:07;;;;;;;7.28;3.20;;;27.40;64.50;;;;;;5995455;23;20151;-81
2021/06/02 13:03:36;;;;;;;6.63;3.55;;;27.50;60.20;;;;;;6024941;23;20431;-81
2021/06/02 13:06:04;;;;;;;5.55;3.03;;;27.60;61.20;;;;;;6041937;23;20068;-85
2021/06/02 13:08:40;;;;;;;5.15;2.50;;;28.30;62.80;;;;;;6066488;23;20018;-80
2021/06/02 13:11:08;;;;;;;9.55;3.50;;;28.70;62.50;;;;;;6066908;23;20029;-81
2021/06/02 13:13:34;;;;;;;6.18;3.00;;;28.90;60.30;;;;;;6042889;23;20010;-84
2021/06/02 13:16:01;;;;;;;4.25;2.90;;;29.10;60.60;;;;;;6102614;23;20368;-85
2021/06/02 13:18:29;;;;;;;5.55;2.97;;;29.60;59.60;;;;;;6100246;23;20395;-81
2021/06/02 13:20:56;;;;;;;9.77;3.40;;;29.70;58.90;;;;;;6106981;23;20013;-82
2021/06/02 13:23:32;;;;;;;7.60;3.63;;;29.40;56.70;;;;;;6125107;23;20355;-82
2021/06/02 13:26:08;;;;;;;10.65;3.40;;;29.30;56.50;;;;;;6127091;23;20067;-84
2021/06/02 13:28:48;;;;;;;9.70;3.28;;;28.60;57.60;;;;;;6154293;23;20021;-81
2021/06/02 13:31:14;;;;;;;6.63;3.20;;;28.30;58.40;;;;;;6163415;23;20048;-84